sensor_id;sensor_type;location;lat;lon;timestamp;temperature;humidity
76269;DHT22;65088;52.352;4.846;2022-12-16T00:01:27;3.30;79.10
76269;DHT22;65088;52.352;4.846;2022-12-16T00:03:57;3.20;79.20
76269;DHT22;65088;52.352;4.846;2022-12-16T00:06:30;3.20;79.10
76269;DHT22;65088;52.352;4.846;2022-12-16T00:09:00;3.10;79.10
76269;DHT22;65088;52.352;4.846;2022-12-16T00:11:29;3.10;79.30
76269;DHT22;65088;52.352;4.846;2022-12-16T00:14:02;3.10;79.20
76269;DHT22;65088;52.352;4.846;2022-12-16T00:16:31;3.10;79.30
76269;DHT22;65088;52.352;4.846;2022-12-16T00:19:00;3.10;79.10
76269;DHT22;65088;52.352;4.846;2022-12-16T00:21:30;3.00;78.90
76269;DHT22;65088;52.352;4.846;2022-12-16T00:23:59;3.00;79.10
76269;DHT22;65088;52.352;4.846;2022-12-16T00:26:28;2.90;78.90
76269;DHT22;65088;52.352;4.846;2022-12-16T00:28:58;2.80;79.00
76269;DHT22;65088;52.352;4.846;2022-12-16T00:31:29;2.70;79.20
76269;DHT22;65088;52.352;4.846;2022-12-16T00:33:59;2.70;79.10
76269;DHT22;65088;52.352;4.846;2022-12-16T00:36:28;2.60;79.20
76269;DHT22;65088;52.352;4.846;2022-12-16T00:38:57;2.60;79.20
76269;DHT22;65088;52.352;4.846;2022-12-16T00:41:27;2.50;79.20
76269;DHT22;65088;52.352;4.846;2022-12-16T00:43:56;2.50;79.10
76269;DHT22;65088;52.352;4.846;2022-12-16T00:46:25;2.50;79.30
76269;DHT22;65088;52.352;4.846;2022-12-16T00:48:57;2.50;79.50
76269;DHT22;65088;52.352;4.846;2022-12-16T00:51:26;2.50;79.40
76269;DHT22;65088;52.352;4.846;2022-12-16T00:53:55;2.60;79.60
76269;DHT22;65088;52.352;4.846;2022-12-16T00:56:25;2.60;79.20
76269;DHT22;65088;52.352;4.846;2022-12-16T00:58:54;2.70;79.00
76269;DHT22;65088;52.352;4.846;2022-12-16T01:01:23;2.70;78.60
76269;DHT22;65088;52.352;4.846;2022-12-16T01:03:57;2.60;78.20
76269;DHT22;65088;52.352;4.846;2022-12-16T01:06:26;2.60;77.90
76269;DHT22;65088;52.352;4.846;2022-12-16T01:08:56;2.60;78.00
76269;DHT22;65088;52.352;4.846;2022-12-16T01:11:25;2.50;77.90
76269;DHT22;65088;52.352;4.846;2022-12-16T01:13:55;2.50;77.70
76269;DHT22;65088;52.352;4.846;2022-12-16T01:16:24;2.50;77.90
76269;DHT22;65088;52.352;4.846;2022-12-16T01:18:54;2.50;77.90
76269;DHT22;65088;52.352;4.846;2022-12-16T01:21:26;2.50;77.70
76269;DHT22;65088;52.352;4.846;2022-12-16T01:23:55;2.40;77.80
76269;DHT22;65088;52.352;4.846;2022-12-16T01:26:24;2.40;77.80
76269;DHT22;65088;52.352;4.846;2022-12-16T01:28:54;2.40;77.80
76269;DHT22;65088;52.352;4.846;2022-12-16T01:31:23;2.40;77.40
76269;DHT22;65088;52.352;4.846;2022-12-16T01:33:53;2.30;77.40
76269;DHT22;65088;52.352;4.846;2022-12-16T01:36:25;2.20;77.40
76269;DHT22;65088;52.352;4.846;2022-12-16T01:38:55;2.20;77.30
76269;DHT22;65088;52.352;4.846;2022-12-16T01:41:24;2.10;77.30
76269;DHT22;65088;52.352;4.846;2022-12-16T01:44:12;2.10;77.40
76269;DHT22;65088;52.352;4.846;2022-12-16T01:46:43;2.10;77.40
76269;DHT22;65088;52.352;4.846;2022-12-16T01:49:19;2.20;77.50
76269;DHT22;65088;52.352;4.846;2022-12-16T01:51:54;2.20;77.10
76269;DHT22;65088;52.352;4.846;2022-12-16T01:54:27;2.20;77.00
76269;DHT22;65088;52.352;4.846;2022-12-16T01:57:00;2.10;77.20
76269;DHT22;65088;52.352;4.846;2022-12-16T01:59:34;2.10;77.20
76269;DHT22;65088;52.352;4.846;2022-12-16T02:02:04;2.10;76.90
76269;DHT22;65088;52.352;4.846;2022-12-16T02:04:34;2.00;76.80
76269;DHT22;65088;52.352;4.846;2022-12-16T02:07:26;2.00;76.90
76269;DHT22;65088;52.352;4.846;2022-12-16T02:09:56;1.90;76.60
76269;DHT22;65088;52.352;4.846;2022-12-16T02:12:28;1.80;76.80
76269;DHT22;65088;52.352;4.846;2022-12-16T02:15:10;1.80;76.80
76269;DHT22;65088;52.352;4.846;2022-12-16T02:17:48;1.70;76.90
76269;DHT22;65088;52.352;4.846;2022-12-16T02:23:28;1.70;76.80
76269;DHT22;65088;52.352;4.846;2022-12-16T02:26:23;1.60;76.90
76269;DHT22;65088;52.352;4.846;2022-12-16T02:29:21;1.60;76.80
76269;DHT22;65088;52.352;4.846;2022-12-16T02:32:05;1.50;76.80
76269;DHT22;65088;52.352;4.846;2022-12-16T02:34:44;1.40;76.90
76269;DHT22;65088;52.352;4.846;2022-12-16T02:37:19;1.40;76.90
76269;DHT22;65088;52.352;4.846;2022-12-16T02:39:56;1.30;77.00
76269;DHT22;65088;52.352;4.846;2022-12-16T02:42:29;1.30;77.20
76269;DHT22;65088;52.352;4.846;2022-12-16T02:45:02;1.30;77.20
76269;DHT22;65088;52.352;4.846;2022-12-16T02:47:34;1.30;77.20
76269;DHT22;65088;52.352;4.846;2022-12-16T02:50:07;1.30;76.90
76269;DHT22;65088;52.352;4.846;2022-12-16T02:52:42;1.30;77.10
76269;DHT22;65088;52.352;4.846;2022-12-16T02:55:12;1.30;77.30
76269;DHT22;65088;52.352;4.846;2022-12-16T02:58:02;1.30;77.40
76269;DHT22;65088;52.352;4.846;2022-12-16T03:00:40;1.30;77.30
76269;DHT22;65088;52.352;4.846;2022-12-16T03:03:23;1.30;77.40
76269;DHT22;65088;52.352;4.846;2022-12-16T03:05:55;1.30;77.30
76269;DHT22;65088;52.352;4.846;2022-12-16T03:08:27;1.20;77.30
76269;DHT22;65088;52.352;4.846;2022-12-16T03:11:00;1.20;77.50
76269;DHT22;65088;52.352;4.846;2022-12-16T03:13:34;1.20;77.50
76269;DHT22;65088;52.352;4.846;2022-12-16T03:16:05;1.10;77.60
76269;DHT22;65088;52.352;4.846;2022-12-16T03:18:42;1.20;77.60
76269;DHT22;65088;52.352;4.846;2022-12-16T03:21:13;1.20;77.60
76269;DHT22;65088;52.352;4.846;2022-12-16T03:23:45;1.20;77.70
76269;DHT22;65088;52.352;4.846;2022-12-16T03:26:18;1.10;77.60
76269;DHT22;65088;52.352;4.846;2022-12-16T03:28:52;1.20;77.60
76269;DHT22;65088;52.352;4.846;2022-12-16T03:31:30;1.20;77.60
76269;DHT22;65088;52.352;4.846;2022-12-16T03:34:09;1.20;77.40
76269;DHT22;65088;52.352;4.846;2022-12-16T03:36:40;1.10;77.50
76269;DHT22;65088;52.352;4.846;2022-12-16T03:39:11;1.00;77.50
76269;DHT22;65088;52.352;4.846;2022-12-16T03:41:43;1.00;77.60
76269;DHT22;65088;52.352;4.846;2022-12-16T03:44:16;1.00;77.60
76269;DHT22;65088;52.352;4.846;2022-12-16T03:46:46;1.00;77.70
76269;DHT22;65088;52.352;4.846;2022-12-16T03:49:19;0.90;77.60
76269;DHT22;65088;52.352;4.846;2022-12-16T03:51:49;1.00;77.60
76269;DHT22;65088;52.352;4.846;2022-12-16T03:54:18;0.90;77.60
76269;DHT22;65088;52.352;4.846;2022-12-16T03:56:48;0.90;77.60
76269;DHT22;65088;52.352;4.846;2022-12-16T03:59:18;0.80;77.60
76269;DHT22;65088;52.352;4.846;2022-12-16T04:01:47;0.80;77.70
76269;DHT22;65088;52.352;4.846;2022-12-16T04:04:20;0.80;77.80
76269;DHT22;65088;52.352;4.846;2022-12-16T04:06:49;0.80;77.80
76269;DHT22;65088;52.352;4.846;2022-12-16T04:09:38;0.70;77.80
76269;DHT22;65088;52.352;4.846;2022-12-16T04:12:09;0.70;77.80
76269;DHT22;65088;52.352;4.846;2022-12-16T04:14:50;0.70;77.70
76269;DHT22;65088;52.352;4.846;2022-12-16T04:17:32;0.70;77.80
76269;DHT22;65088;52.352;4.846;2022-12-16T04:20:17;0.60;77.80
76269;DHT22;65088;52.352;4.846;2022-12-16T04:23:00;0.60;77.90
76269;DHT22;65088;52.352;4.846;2022-12-16T04:25:42;0.60;77.90
76269;DHT22;65088;52.352;4.846;2022-12-16T04:28:11;0.50;77.90
76269;DHT22;65088;52.352;4.846;2022-12-16T04:30:40;0.50;77.90
76269;DHT22;65088;52.352;4.846;2022-12-16T04:33:11;0.50;78.00
76269;DHT22;65088;52.352;4.846;2022-12-16T04:35:57;0.50;78.00
76269;DHT22;65088;52.352;4.846;2022-12-16T04:38:39;0.50;77.90
76269;DHT22;65088;52.352;4.846;2022-12-16T04:41:20;0.50;77.90
76269;DHT22;65088;52.352;4.846;2022-12-16T04:44:03;0.40;78.00
76269;DHT22;65088;52.352;4.846;2022-12-16T04:46:45;0.40;78.00
76269;DHT22;65088;52.352;4.846;2022-12-16T04:49:27;0.40;78.00
76269;DHT22;65088;52.352;4.846;2022-12-16T04:52:11;0.40;78.00
76269;DHT22;65088;52.352;4.846;2022-12-16T04:54:54;0.30;78.00
76269;DHT22;65088;52.352;4.846;2022-12-16T04:57:35;0.30;78.10
76269;DHT22;65088;52.352;4.846;2022-12-16T05:00:17;0.30;78.30
76269;DHT22;65088;52.352;4.846;2022-12-16T05:02:59;0.40;78.30
76269;DHT22;65088;52.352;4.846;2022-12-16T05:05:41;0.40;78.20
76269;DHT22;65088;52.352;4.846;2022-12-16T05:08:25;0.40;78.20
76269;DHT22;65088;52.352;4.846;2022-12-16T05:11:07;0.40;78.10
76269;DHT22;65088;52.352;4.846;2022-12-16T05:13:49;0.40;78.10
76269;DHT22;65088;52.352;4.846;2022-12-16T05:16:31;0.40;78.20
76269;DHT22;65088;52.352;4.846;2022-12-16T05:19:12;0.40;78.20
76269;DHT22;65088;52.352;4.846;2022-12-16T05:21:54;0.40;78.10
76269;DHT22;65088;52.352;4.846;2022-12-16T05:24:38;0.40;78.20
76269;DHT22;65088;52.352;4.846;2022-12-16T05:27:20;0.30;78.20
76269;DHT22;65088;52.352;4.846;2022-12-16T05:30:02;0.30;78.20
76269;DHT22;65088;52.352;4.846;2022-12-16T05:32:47;0.30;78.20
76269;DHT22;65088;52.352;4.846;2022-12-16T05:35:29;0.30;78.30
76269;DHT22;65088;52.352;4.846;2022-12-16T05:38:11;0.30;78.40
76269;DHT22;65088;52.352;4.846;2022-12-16T05:40:55;0.40;78.50
76269;DHT22;65088;52.352;4.846;2022-12-16T05:43:37;0.40;78.50
76269;DHT22;65088;52.352;4.846;2022-12-16T05:46:18;0.50;78.60
76269;DHT22;65088;52.352;4.846;2022-12-16T05:49:00;0.50;78.50
76269;DHT22;65088;52.352;4.846;2022-12-16T05:51:42;0.60;78.60
76269;DHT22;65088;52.352;4.846;2022-12-16T05:54:24;0.70;78.70
76269;DHT22;65088;52.352;4.846;2022-12-16T05:57:17;0.90;78.80
76269;DHT22;65088;52.352;4.846;2022-12-16T05:59:58;1.10;78.60
76269;DHT22;65088;52.352;4.846;2022-12-16T06:02:40;1.20;78.40
76269;DHT22;65088;52.352;4.846;2022-12-16T06:05:22;1.30;78.20
76269;DHT22;65088;52.352;4.846;2022-12-16T06:08:04;1.40;78.10
76269;DHT22;65088;52.352;4.846;2022-12-16T06:10:45;1.50;78.00
76269;DHT22;65088;52.352;4.846;2022-12-16T06:13:29;1.50;77.90
76269;DHT22;65088;52.352;4.846;2022-12-16T06:16:11;1.60;77.70
76269;DHT22;65088;52.352;4.846;2022-12-16T06:18:53;1.60;77.60
76269;DHT22;65088;52.352;4.846;2022-12-16T06:21:35;1.70;77.40
76269;DHT22;65088;52.352;4.846;2022-12-16T06:24:37;1.70;77.30
76269;DHT22;65088;52.352;4.846;2022-12-16T06:29:13;1.70;77.20
76269;DHT22;65088;52.352;4.846;2022-12-16T06:30:57;1.80;77.30
76269;DHT22;65088;52.352;4.846;2022-12-16T06:33:39;1.80;77.30
76269;DHT22;65088;52.352;4.846;2022-12-16T06:36:20;1.90;77.30
76269;DHT22;65088;52.352;4.846;2022-12-16T06:39:02;1.90;77.20
76269;DHT22;65088;52.352;4.846;2022-12-16T06:41:44;1.80;77.00
76269;DHT22;65088;52.352;4.846;2022-12-16T06:44:25;1.70;76.90
76269;DHT22;65088;52.352;4.846;2022-12-16T06:47:10;1.50;76.80
76269;DHT22;65088;52.352;4.846;2022-12-16T06:49:51;1.30;77.00
76269;DHT22;65088;52.352;4.846;2022-12-16T06:52:48;1.20;77.10
76269;DHT22;65088;52.352;4.846;2022-12-16T06:55:30;1.10;77.20
76269;DHT22;65088;52.352;4.846;2022-12-16T06:58:12;1.00;77.30
76269;DHT22;65088;52.352;4.846;2022-12-16T07:00:54;1.00;77.40
76269;DHT22;65088;52.352;4.846;2022-12-16T07:03:38;1.00;77.40
76269;DHT22;65088;52.352;4.846;2022-12-16T07:06:27;1.10;77.30
76269;DHT22;65088;52.352;4.846;2022-12-16T07:09:08;1.10;77.10
76269;DHT22;65088;52.352;4.846;2022-12-16T07:11:50;1.10;76.70
76269;DHT22;65088;52.352;4.846;2022-12-16T07:14:32;1.10;76.50
76269;DHT22;65088;52.352;4.846;2022-12-16T07:17:14;1.00;76.50
76269;DHT22;65088;52.352;4.846;2022-12-16T07:19:58;1.00;76.60
76269;DHT22;65088;52.352;4.846;2022-12-16T07:22:41;0.90;76.70
76269;DHT22;65088;52.352;4.846;2022-12-16T07:25:23;0.90;76.70
76269;DHT22;65088;52.352;4.846;2022-12-16T07:28:05;0.80;76.80
76269;DHT22;65088;52.352;4.846;2022-12-16T07:30:47;0.80;77.20
76269;DHT22;65088;52.352;4.846;2022-12-16T07:33:29;0.80;77.70
76269;DHT22;65088;52.352;4.846;2022-12-16T07:36:14;1.00;77.80
76269;DHT22;65088;52.352;4.846;2022-12-16T07:38:56;1.20;77.70
76269;DHT22;65088;52.352;4.846;2022-12-16T07:41:38;1.40;77.60
76269;DHT22;65088;52.352;4.846;2022-12-16T07:44:20;1.50;77.40
76269;DHT22;65088;52.352;4.846;2022-12-16T07:47:13;1.60;77.20
76269;DHT22;65088;52.352;4.846;2022-12-16T07:49:55;1.60;76.90
76269;DHT22;65088;52.352;4.846;2022-12-16T07:52:40;1.50;76.80
76269;DHT22;65088;52.352;4.846;2022-12-16T07:55:21;1.50;76.90
76269;DHT22;65088;52.352;4.846;2022-12-16T07:58:05;1.40;76.80
76269;DHT22;65088;52.352;4.846;2022-12-16T08:00:46;1.20;76.80
76269;DHT22;65088;52.352;4.846;2022-12-16T08:03:28;1.10;77.00
76269;DHT22;65088;52.352;4.846;2022-12-16T08:06:11;1.00;77.10
76269;DHT22;65088;52.352;4.846;2022-12-16T08:08:56;1.00;77.30
76269;DHT22;65088;52.352;4.846;2022-12-16T08:11:40;0.90;77.30
76269;DHT22;65088;52.352;4.846;2022-12-16T08:14:22;0.90;77.60
76269;DHT22;65088;52.352;4.846;2022-12-16T08:17:03;1.00;77.60
76269;DHT22;65088;52.352;4.846;2022-12-16T08:19:45;1.00;77.40
76269;DHT22;65088;52.352;4.846;2022-12-16T08:22:28;1.00;77.40
76269;DHT22;65088;52.352;4.846;2022-12-16T08:25:12;1.10;77.40
76269;DHT22;65088;52.352;4.846;2022-12-16T08:27:54;1.10;77.30
76269;DHT22;65088;52.352;4.846;2022-12-16T08:30:36;1.20;77.20
76269;DHT22;65088;52.352;4.846;2022-12-16T08:33:18;1.20;77.10
76269;DHT22;65088;52.352;4.846;2022-12-16T08:36:11;1.20;77.10
76269;DHT22;65088;52.352;4.846;2022-12-16T08:38:55;1.20;77.10
76269;DHT22;65088;52.352;4.846;2022-12-16T08:41:40;1.20;77.10
76269;DHT22;65088;52.352;4.846;2022-12-16T08:44:24;1.20;77.10
76269;DHT22;65088;52.352;4.846;2022-12-16T08:47:12;1.10;77.20
76269;DHT22;65088;52.352;4.846;2022-12-16T08:49:54;1.20;77.40
76269;DHT22;65088;52.352;4.846;2022-12-16T08:52:36;1.20;77.30
76269;DHT22;65088;52.352;4.846;2022-12-16T08:55:17;1.30;77.10
76269;DHT22;65088;52.352;4.846;2022-12-16T08:58:02;1.40;76.90
76269;DHT22;65088;52.352;4.846;2022-12-16T09:00:44;1.40;76.90
76269;DHT22;65088;52.352;4.846;2022-12-16T09:03:26;1.40;76.80
76269;DHT22;65088;52.352;4.846;2022-12-16T09:06:08;1.50;76.70
76269;DHT22;65088;52.352;4.846;2022-12-16T09:08:49;1.50;76.60
76269;DHT22;65088;52.352;4.846;2022-12-16T09:11:32;1.60;76.60
76269;DHT22;65088;52.352;4.846;2022-12-16T09:14:16;1.60;76.60
76269;DHT22;65088;52.352;4.846;2022-12-16T09:16:58;1.60;76.60
76269;DHT22;65088;52.352;4.846;2022-12-16T09:19:40;1.70;76.70
76269;DHT22;65088;52.352;4.846;2022-12-16T09:22:30;1.70;76.60
76269;DHT22;65088;52.352;4.846;2022-12-16T09:25:12;1.80;76.40
76269;DHT22;65088;52.352;4.846;2022-12-16T09:27:54;1.90;76.40
76269;DHT22;65088;52.352;4.846;2022-12-16T09:30:38;1.90;76.20
76269;DHT22;65088;52.352;4.846;2022-12-16T09:33:20;2.00;76.20
76269;DHT22;65088;52.352;4.846;2022-12-16T09:36:02;2.00;76.10
76269;DHT22;65088;52.352;4.846;2022-12-16T09:38:43;2.10;75.90
76269;DHT22;65088;52.352;4.846;2022-12-16T09:41:34;2.20;75.70
76269;DHT22;65088;52.352;4.846;2022-12-16T09:44:24;2.20;75.50
76269;DHT22;65088;52.352;4.846;2022-12-16T09:47:19;2.30;75.50
76269;DHT22;65088;52.352;4.846;2022-12-16T09:50:05;2.40;75.40
76269;DHT22;65088;52.352;4.846;2022-12-16T09:52:57;2.40;75.50
76269;DHT22;65088;52.352;4.846;2022-12-16T09:55:41;2.50;75.10
76269;DHT22;65088;52.352;4.846;2022-12-16T09:58:26;2.60;74.90
76269;DHT22;65088;52.352;4.846;2022-12-16T10:01:13;2.60;74.90
76269;DHT22;65088;52.352;4.846;2022-12-16T10:03:58;2.60;74.80
76269;DHT22;65088;52.352;4.846;2022-12-16T10:06:44;2.70;74.70
76269;DHT22;65088;52.352;4.846;2022-12-16T10:09:30;2.80;74.40
76269;DHT22;65088;52.352;4.846;2022-12-16T10:12:22;2.90;74.60
76269;DHT22;65088;52.352;4.846;2022-12-16T10:15:29;2.90;74.30
76269;DHT22;65088;52.352;4.846;2022-12-16T10:18:23;3.00;74.10
76269;DHT22;65088;52.352;4.846;2022-12-16T10:21:12;3.00;73.70
76269;DHT22;65088;52.352;4.846;2022-12-16T10:24:03;3.10;73.50
76269;DHT22;65088;52.352;4.846;2022-12-16T10:26:52;3.10;73.00
76269;DHT22;65088;52.352;4.846;2022-12-16T10:29:35;3.20;73.30
76269;DHT22;65088;52.352;4.846;2022-12-16T10:32:28;3.20;73.40
76269;DHT22;65088;52.352;4.846;2022-12-16T10:35:19;3.30;72.60
76269;DHT22;65088;52.352;4.846;2022-12-16T10:38:06;3.40;72.70
76269;DHT22;65088;52.352;4.846;2022-12-16T10:40:58;3.40;72.60
76269;DHT22;65088;52.352;4.846;2022-12-16T10:43:43;3.50;72.30
76269;DHT22;65088;52.352;4.846;2022-12-16T10:46:28;3.50;70.90
76269;DHT22;65088;52.352;4.846;2022-12-16T10:49:14;3.60;71.10
76269;DHT22;65088;52.352;4.846;2022-12-16T10:51:56;3.60;71.40
76269;DHT22;65088;52.352;4.846;2022-12-16T10:54:45;3.60;71.50
76269;DHT22;65088;52.352;4.846;2022-12-16T10:57:36;3.70;71.40
76269;DHT22;65088;52.352;4.846;2022-12-16T11:00:37;3.70;70.90
76269;DHT22;65088;52.352;4.846;2022-12-16T11:03:21;3.70;71.00
76269;DHT22;65088;52.352;4.846;2022-12-16T11:06:04;3.70;71.10
76269;DHT22;65088;52.352;4.846;2022-12-16T11:08:46;3.70;71.40
76269;DHT22;65088;52.352;4.846;2022-12-16T11:11:30;3.80;71.50
76269;DHT22;65088;52.352;4.846;2022-12-16T11:14:20;3.80;71.60
76269;DHT22;65088;52.352;4.846;2022-12-16T11:17:17;3.80;71.20
76269;DHT22;65088;52.352;4.846;2022-12-16T11:20:12;3.80;71.30
76269;DHT22;65088;52.352;4.846;2022-12-16T11:23:15;3.80;71.00
76269;DHT22;65088;52.352;4.846;2022-12-16T11:26:06;3.90;71.40
76269;DHT22;65088;52.352;4.846;2022-12-16T11:29:09;4.40;71.80
76269;DHT22;65088;52.352;4.846;2022-12-16T11:31:56;4.80;71.40
76269;DHT22;65088;52.352;4.846;2022-12-16T11:34:38;5.30;71.00
76269;DHT22;65088;52.352;4.846;2022-12-16T11:37:20;5.70;71.00
76269;DHT22;65088;52.352;4.846;2022-12-16T11:40:04;6.20;70.90
76269;DHT22;65088;52.352;4.846;2022-12-16T11:42:47;6.60;70.10
76269;DHT22;65088;52.352;4.846;2022-12-16T11:45:43;6.90;68.10
76269;DHT22;65088;52.352;4.846;2022-12-16T11:48:43;7.30;68.20
76269;DHT22;65088;52.352;4.846;2022-12-16T11:51:31;7.70;67.60
76269;DHT22;65088;52.352;4.846;2022-12-16T11:54:17;8.10;66.60
76269;DHT22;65088;52.352;4.846;2022-12-16T11:57:01;8.10;66.00
76269;DHT22;65088;52.352;4.846;2022-12-16T11:59:47;8.10;66.40
76269;DHT22;65088;52.352;4.846;2022-12-16T12:02:37;8.00;64.90
76269;DHT22;65088;52.352;4.846;2022-12-16T12:05:28;8.00;64.60
76269;DHT22;65088;52.352;4.846;2022-12-16T12:08:14;8.30;63.90
76269;DHT22;65088;52.352;4.846;2022-12-16T12:11:01;8.50;63.20
76269;DHT22;65088;52.352;4.846;2022-12-16T12:13:50;8.70;61.90
76269;DHT22;65088;52.352;4.846;2022-12-16T12:16:42;9.00;61.60
76269;DHT22;65088;52.352;4.846;2022-12-16T12:19:35;9.30;61.80
76269;DHT22;65088;52.352;4.846;2022-12-16T12:22:34;9.60;61.30
76269;DHT22;65088;52.352;4.846;2022-12-16T12:25:22;9.60;60.60
76269;DHT22;65088;52.352;4.846;2022-12-16T12:28:13;9.60;60.00
76269;DHT22;65088;52.352;4.846;2022-12-16T12:31:05;9.40;58.40
76269;DHT22;65088;52.352;4.846;2022-12-16T12:33:56;9.20;59.20
76269;DHT22;65088;52.352;4.846;2022-12-16T12:36:48;8.90;58.80
76269;DHT22;65088;52.352;4.846;2022-12-16T12:39:36;8.70;59.20
76269;DHT22;65088;52.352;4.846;2022-12-16T12:42:32;8.40;59.30
76269;DHT22;65088;52.352;4.846;2022-12-16T12:45:26;8.10;59.20
76269;DHT22;65088;52.352;4.846;2022-12-16T12:48:19;7.70;59.00
76269;DHT22;65088;52.352;4.846;2022-12-16T12:51:08;7.40;58.70
76269;DHT22;65088;52.352;4.846;2022-12-16T12:54:02;7.20;59.20
76269;DHT22;65088;52.352;4.846;2022-12-16T12:56:52;7.00;59.30
76269;DHT22;65088;52.352;4.846;2022-12-16T12:59:43;6.70;59.80
76269;DHT22;65088;52.352;4.846;2022-12-16T13:02:45;6.50;60.00
76269;DHT22;65088;52.352;4.846;2022-12-16T13:05:31;6.30;60.60
76269;DHT22;65088;52.352;4.846;2022-12-16T13:08:38;6.10;60.00
76269;DHT22;65088;52.352;4.846;2022-12-16T13:11:24;5.90;60.40
76269;DHT22;65088;52.352;4.846;2022-12-16T13:17:19;5.90;61.10
76269;DHT22;65088;52.352;4.846;2022-12-16T13:20:01;5.80;60.70
76269;DHT22;65088;52.352;4.846;2022-12-16T13:22:44;5.70;61.00
76269;DHT22;65088;52.352;4.846;2022-12-16T13:25:36;5.60;61.20
76269;DHT22;65088;52.352;4.846;2022-12-16T13:28:25;5.60;61.50
76269;DHT22;65088;52.352;4.846;2022-12-16T13:31:08;5.80;61.80
76269;DHT22;65088;52.352;4.846;2022-12-16T13:33:50;6.00;61.80
76269;DHT22;65088;52.352;4.846;2022-12-16T13:36:33;6.20;61.90
76269;DHT22;65088;52.352;4.846;2022-12-16T13:39:26;6.30;61.30
76269;DHT22;65088;52.352;4.846;2022-12-16T13:42:31;6.40;60.60
76269;DHT22;65088;52.352;4.846;2022-12-16T13:45:27;6.20;61.00
76269;DHT22;65088;52.352;4.846;2022-12-16T13:48:27;6.10;61.20
76269;DHT22;65088;52.352;4.846;2022-12-16T13:54:29;5.60;60.40
76269;DHT22;65088;52.352;4.846;2022-12-16T13:57:13;5.50;60.90
76269;DHT22;65088;52.352;4.846;2022-12-16T13:59:57;5.50;61.40
76269;DHT22;65088;52.352;4.846;2022-12-16T14:02:43;5.50;61.60
76269;DHT22;65088;52.352;4.846;2022-12-16T14:05:28;5.50;61.00
76269;DHT22;65088;52.352;4.846;2022-12-16T14:08:15;5.50;61.30
76269;DHT22;65088;52.352;4.846;2022-12-16T14:11:02;5.40;61.70
76269;DHT22;65088;52.352;4.846;2022-12-16T14:13:49;5.30;61.80
76269;DHT22;65088;52.352;4.846;2022-12-16T14:16:41;5.20;61.50
76269;DHT22;65088;52.352;4.846;2022-12-16T14:19:33;5.10;61.70
76269;DHT22;65088;52.352;4.846;2022-12-16T14:22:27;5.10;61.20
76269;DHT22;65088;52.352;4.846;2022-12-16T14:25:14;5.20;61.50
76269;DHT22;65088;52.352;4.846;2022-12-16T14:27:56;5.40;61.50
76269;DHT22;65088;52.352;4.846;2022-12-16T14:30:38;5.30;60.50
76269;DHT22;65088;52.352;4.846;2022-12-16T14:33:22;5.20;60.90
76269;DHT22;65088;52.352;4.846;2022-12-16T14:36:20;5.00;61.20
76269;DHT22;65088;52.352;4.846;2022-12-16T14:39:02;4.80;61.60
76269;DHT22;65088;52.352;4.846;2022-12-16T14:41:49;4.60;61.90
76269;DHT22;65088;52.352;4.846;2022-12-16T14:44:31;4.50;62.10
76269;DHT22;65088;52.352;4.846;2022-12-16T14:47:16;4.40;62.40
76269;DHT22;65088;52.352;4.846;2022-12-16T14:49:58;4.20;62.70
76269;DHT22;65088;52.352;4.846;2022-12-16T14:52:43;4.20;62.70
76269;DHT22;65088;52.352;4.846;2022-12-16T14:55:40;4.10;62.70
76269;DHT22;65088;52.352;4.846;2022-12-16T14:58:23;3.90;62.90
76269;DHT22;65088;52.352;4.846;2022-12-16T15:01:12;3.80;63.00
76269;DHT22;65088;52.352;4.846;2022-12-16T15:03:55;3.80;63.10
76269;DHT22;65088;52.352;4.846;2022-12-16T15:06:40;3.80;63.00
76269;DHT22;65088;52.352;4.846;2022-12-16T15:09:31;3.70;62.80
76269;DHT22;65088;52.352;4.846;2022-12-16T15:12:15;3.60;63.00
76269;DHT22;65088;52.352;4.846;2022-12-16T15:15:00;3.50;63.10
76269;DHT22;65088;52.352;4.846;2022-12-16T15:17:48;3.40;63.40
76269;DHT22;65088;52.352;4.846;2022-12-16T15:20:33;3.30;63.50
76269;DHT22;65088;52.352;4.846;2022-12-16T15:23:20;3.20;63.80
76269;DHT22;65088;52.352;4.846;2022-12-16T15:26:06;3.20;64.00
76269;DHT22;65088;52.352;4.846;2022-12-16T15:28:48;3.10;64.00
76269;DHT22;65088;52.352;4.846;2022-12-16T15:31:31;3.10;64.10
76269;DHT22;65088;52.352;4.846;2022-12-16T15:34:25;2.90;64.20
76269;DHT22;65088;52.352;4.846;2022-12-16T15:37:20;2.80;64.50
76269;DHT22;65088;52.352;4.846;2022-12-16T15:40:13;2.70;64.60
76269;DHT22;65088;52.352;4.846;2022-12-16T15:43:01;2.60;64.70
76269;DHT22;65088;52.352;4.846;2022-12-16T15:45:47;2.50;65.00
76269;DHT22;65088;52.352;4.846;2022-12-16T15:48:31;2.50;65.30
76269;DHT22;65088;52.352;4.846;2022-12-16T15:51:27;2.40;65.40
76269;DHT22;65088;52.352;4.846;2022-12-16T15:54:15;2.30;65.50
76269;DHT22;65088;52.352;4.846;2022-12-16T15:56:57;2.20;65.80
76269;DHT22;65088;52.352;4.846;2022-12-16T15:59:54;2.20;65.80
76269;DHT22;65088;52.352;4.846;2022-12-16T16:02:45;2.10;65.90
76269;DHT22;65088;52.352;4.846;2022-12-16T16:05:27;2.00;66.10
76269;DHT22;65088;52.352;4.846;2022-12-16T16:08:11;1.90;66.20
76269;DHT22;65088;52.352;4.846;2022-12-16T16:10:53;1.90;66.40
76269;DHT22;65088;52.352;4.846;2022-12-16T16:13:38;1.80;66.60
76269;DHT22;65088;52.352;4.846;2022-12-16T16:16:24;1.80;66.70
76269;DHT22;65088;52.352;4.846;2022-12-16T16:19:09;1.80;66.80
76269;DHT22;65088;52.352;4.846;2022-12-16T16:21:52;1.80;66.80
76269;DHT22;65088;52.352;4.846;2022-12-16T16:24:35;1.70;67.00
76269;DHT22;65088;52.352;4.846;2022-12-16T16:27:17;1.70;67.00
76269;DHT22;65088;52.352;4.846;2022-12-16T16:30:00;1.60;67.20
76269;DHT22;65088;52.352;4.846;2022-12-16T16:32:45;1.60;67.30
76269;DHT22;65088;52.352;4.846;2022-12-16T16:35:26;1.60;67.50
76269;DHT22;65088;52.352;4.846;2022-12-16T16:38:10;1.60;67.50
76269;DHT22;65088;52.352;4.846;2022-12-16T16:40:52;1.50;67.60
76269;DHT22;65088;52.352;4.846;2022-12-16T16:43:33;1.40;67.70
76269;DHT22;65088;52.352;4.846;2022-12-16T16:46:30;1.40;67.80
76269;DHT22;65088;52.352;4.846;2022-12-16T16:49:19;1.40;68.00
76269;DHT22;65088;52.352;4.846;2022-12-16T16:52:01;1.30;68.10
76269;DHT22;65088;52.352;4.846;2022-12-16T16:54:43;1.30;68.20
76269;DHT22;65088;52.352;4.846;2022-12-16T16:57:31;1.30;68.20
76269;DHT22;65088;52.352;4.846;2022-12-16T17:00:15;1.30;68.40
76269;DHT22;65088;52.352;4.846;2022-12-16T17:02:57;1.20;68.40
76269;DHT22;65088;52.352;4.846;2022-12-16T17:05:41;1.20;68.50
76269;DHT22;65088;52.352;4.846;2022-12-16T17:08:23;1.10;68.60
76269;DHT22;65088;52.352;4.846;2022-12-16T17:11:14;1.10;68.70
76269;DHT22;65088;52.352;4.846;2022-12-16T17:13:56;1.10;68.80
76269;DHT22;65088;52.352;4.846;2022-12-16T17:16:38;1.00;68.90
76269;DHT22;65088;52.352;4.846;2022-12-16T17:19:20;1.00;69.00
76269;DHT22;65088;52.352;4.846;2022-12-16T17:22:05;0.90;69.10
76269;DHT22;65088;52.352;4.846;2022-12-16T17:24:49;0.90;69.30
76269;DHT22;65088;52.352;4.846;2022-12-16T17:27:30;0.80;69.40
76269;DHT22;65088;52.352;4.846;2022-12-16T17:30:15;0.80;69.40
76269;DHT22;65088;52.352;4.846;2022-12-16T17:32:56;0.70;69.60